sensor_id;sensor_type;location;lat;lon;timestamp;pressure;altitude;pressure_sealevel;temperature;humidity
25584;BME280;13463;51.526;9.928;2024-02-14T00:00:07;100107.44;;;6.25;100.00
25584;BME280;13463;51.526;9.928;2024-02-14T00:02:41;100104.81;;;6.25;100.00
25584;BME280;13463;51.526;9.928;2024-02-14T00:05:07;100104.88;;;6.23;100.00
25584;BME280;13463;51.526;9.928;2024-02-14T00:07:34;100103.28;;;6.19;100.00
25584;BME280;13463;51.526;9.928;2024-02-14T00:10:00;100093.56;;;6.20;100.00
25584;BME280;13463;51.526;9.928;2024-02-14T00:12:27;100092.59;;;6.22;100.00
25584;BME280;13463;51.526;9.928;2024-02-14T00:14:54;100073.19;;;6.25;100.00
25584;BME280;13463;51.526;9.928;2024-02-14T00:17:21;100075.66;;;6.29;100.00
25584;BME280;13463;51.526;9.928;2024-02-14T00:19:48;100055.44;;;6.31;100.00
25584;BME280;13463;51.526;9.928;2024-02-14T00:22:15;100059.75;;;6.32;100.00
25584;BME280;13463;51.526;9.928;2024-02-14T00:24:42;100049.22;;;6.32;100.00
25584;BME280;13463;51.526;9.928;2024-02-14T00:27:10;100055.44;;;6.31;100.00
25584;BME280;13463;51.526;9.928;2024-02-14T00:29:36;100055.44;;;6.31;100.00
25584;BME280;13463;51.526;9.928;2024-02-14T00:32:04;100059.56;;;6.38;100.00
25584;BME280;13463;51.526;9.928;2024-02-14T00:34:31;100063.84;;;6.41;100.00
25584;BME280;13463;51.526;9.928;2024-02-14T00:36:57;100058.50;;;6.42;100.00
25584;BME280;13463;51.526;9.928;2024-02-14T00:39:24;100060.28;;;6.42;100.00
25584;BME280;13463;51.526;9.928;2024-02-14T00:41:51;100065.50;;;6.43;100.00
25584;BME280;13463;51.526;9.928;2024-02-14T00:44:19;100058.63;;;6.39;100.00
25584;BME280;13463;51.526;9.928;2024-02-14T00:46:46;100058.63;;;6.39;100.00
25584;BME280;13463;51.526;9.928;2024-02-14T00:49:12;100058.75;;;6.36;100.00
25584;BME280;13463;51.526;9.928;2024-02-14T00:51:40;100056.16;;;6.35;100.00
25584;BME280;13463;51.526;9.928;2024-02-14T00:54:07;100050.25;;;6.28;100.00
25584;BME280;13463;51.526;9.928;2024-02-14T00:56:34;100051.16;;;6.27;100.00
25584;BME280;13463;51.526;9.928;2024-02-14T00:59:01;100049.34;;;6.29;100.00
25584;BME280;13463;51.526;9.928;2024-02-14T01:01:27;100050.97;;;6.33;100.00
25584;BME280;13463;51.526;9.928;2024-02-14T01:03:54;100044.75;;;6.34;100.00
25584;BME280;13463;51.526;9.928;2024-02-14T01:06:20;100046.50;;;6.35;100.00
25584;BME280;13463;51.526;9.928;2024-02-14T01:08:47;100031.59;;;6.34;100.00
25584;BME280;13463;51.526;9.928;2024-02-14T01:11:14;100041.16;;;6.37;100.00
25584;BME280;13463;51.526;9.928;2024-02-14T01:13:40;100035.94;;;6.35;100.00
25584;BME280;13463;51.526;9.928;2024-02-14T01:16:07;100026.22;;;6.37;100.00
25584;BME280;13463;51.526;9.928;2024-02-14T01:18:34;100031.38;;;6.40;100.00
25584;BME280;13463;51.526;9.928;2024-02-14T01:21:01;100027.94;;;6.38;100.00
25584;BME280;13463;51.526;9.928;2024-02-14T01:23:28;100026.19;;;6.39;100.00
25584;BME280;13463;51.526;9.928;2024-02-14T01:25:54;100028.75;;;6.40;100.00
25584;BME280;13463;51.526;9.928;2024-02-14T01:28:21;100021.75;;;6.39;100.00
25584;BME280;13463;51.526;9.928;2024-02-14T01:30:48;100022.69;;;6.38;100.00
25584;BME280;13463;51.526;9.928;2024-02-14T01:33:15;100020.03;;;6.38;100.00
25584;BME280;13463;51.526;9.928;2024-02-14T01:35:43;100024.44;;;6.38;100.00
25584;BME280;13463;51.526;9.928;2024-02-14T01:38:09;100015.50;;;6.42;100.00
25584;BME280;13463;51.526;9.928;2024-02-14T01:40:42;100013.81;;;6.41;100.00
25584;BME280;13463;51.526;9.928;2024-02-14T01:43:09;100011.03;;;6.44;100.00
25584;BME280;13463;51.526;9.928;2024-02-14T01:45:37;100005.72;;;6.45;100.00
25584;BME280;13463;51.526;9.928;2024-02-14T01:48:04;99997.75;;;6.47;100.00
25584;BME280;13463;51.526;9.928;2024-02-14T01:50:34;100003.81;;;6.49;100.00
25584;BME280;13463;51.526;9.928;2024-02-14T01:53:02;99988.78;;;6.51;100.00
25584;BME280;13463;51.526;9.928;2024-02-14T01:55:29;99990.47;;;6.53;100.00
25584;BME280;13463;51.526;9.928;2024-02-14T01:57:56;99979.91;;;6.53;100.00
25584;BME280;13463;51.526;9.928;2024-02-14T02:00:23;99979.63;;;6.61;100.00
25584;BME280;13463;51.526;9.928;2024-02-14T02:02:51;99977.06;;;6.59;100.00
25584;BME280;13463;51.526;9.928;2024-02-14T02:05:18;99983.81;;;6.66;100.00
25584;BME280;13463;51.526;9.928;2024-02-14T02:07:46;99967.19;;;6.64;100.00
25584;BME280;13463;51.526;9.928;2024-02-14T02:10:14;99968.91;;;6.65;100.00
25584;BME280;13463;51.526;9.928;2024-02-14T02:12:41;99978.53;;;6.66;100.00
25584;BME280;13463;51.526;9.928;2024-02-14T02:15:08;99967.00;;;6.69;100.00
25584;BME280;13463;51.526;9.928;2024-02-14T02:17:41;99975.69;;;6.72;100.00
25584;BME280;13463;51.526;9.928;2024-02-14T02:20:09;99960.50;;;6.78;100.00
25584;BME280;13463;51.526;9.928;2024-02-14T02:22:35;99968.50;;;6.76;100.00
25584;BME280;13463;51.526;9.928;2024-02-14T02:25:03;99964.88;;;6.79;100.00
25584;BME280;13463;51.526;9.928;2024-02-14T02:27:29;99970.94;;;6.81;100.00
25584;BME280;13463;51.526;9.928;2024-02-14T02:29:56;99969.84;;;6.86;100.00
25584;BME280;13463;51.526;9.928;2024-02-14T02:32:22;99967.13;;;6.88;100.00
25584;BME280;13463;51.526;9.928;2024-02-14T02:34:49;99974.94;;;6.91;100.00
25584;BME280;13463;51.526;9.928;2024-02-14T02:37:16;99967.03;;;6.91;100.00
25584;BME280;13463;51.526;9.928;2024-02-14T02:39:43;99968.75;;;6.92;100.00
25584;BME280;13463;51.526;9.928;2024-02-14T02:42:09;99965.28;;;6.90;100.00
25584;BME280;13463;51.526;9.928;2024-02-14T02:44:38;99958.19;;;6.92;100.00
25584;BME280;13463;51.526;9.928;2024-02-14T02:47:05;99947.38;;;6.98;100.00
25584;BME280;13463;51.526;9.928;2024-02-14T02:49:32;99956.88;;;7.02;100.00
25584;BME280;13463;51.526;9.928;2024-02-14T02:51:59;99950.94;;;6.97;100.00
25584;BME280;13463;51.526;9.928;2024-02-14T02:54:25;99947.28;;;7.01;100.00
25584;BME280;13463;51.526;9.928;2024-02-14T02:56:52;99947.38;;;6.98;100.00
25584;BME280;13463;51.526;9.928;2024-02-14T02:59:18;99937.81;;;6.95;100.00
25584;BME280;13463;51.526;9.928;2024-02-14T03:01:45;99931.44;;;7.01;100.00
25584;BME280;13463;51.526;9.928;2024-02-14T03:04:12;99925.31;;;7.00;100.00
25584;BME280;13463;51.526;9.928;2024-02-14T03:06:41;99925.25;;;7.02;100.00
25584;BME280;13463;51.526;9.928;2024-02-14T03:09:09;99923.53;;;7.01;100.00
25584;BME280;13463;51.526;9.928;2024-02-14T03:11:37;99923.34;;;7.05;100.00
25584;BME280;13463;51.526;9.928;2024-02-14T03:14:04;99920.63;;;7.07;100.00
25584;BME280;13463;51.526;9.928;2024-02-14T03:16:32;99923.28;;;7.07;100.00
25584;BME280;13463;51.526;9.928;2024-02-14T03:18:58;99917.94;;;7.08;100.00
25584;BME280;13463;51.526;9.928;2024-02-14T03:21:25;99920.50;;;7.10;100.00
25584;BME280;13463;51.526;9.928;2024-02-14T03:23:52;99909.88;;;7.11;100.00
25584;BME280;13463;51.526;9.928;2024-02-14T03:26:20;99909.84;;;7.13;100.00
25584;BME280;13463;51.526;9.928;2024-02-14T03:28:47;99915.97;;;7.13;100.00
25584;BME280;13463;51.526;9.928;2024-02-14T03:31:15;99914.84;;;7.19;100.00
25584;BME280;13463;51.526;9.928;2024-02-14T03:33:42;99911.28;;;7.20;100.00
25584;BME280;13463;51.526;9.928;2024-02-14T03:36:10;99913.75;;;7.24;100.00
25584;BME280;13463;51.526;9.928;2024-02-14T03:38:37;99911.22;;;7.21;100.00
25584;BME280;13463;51.526;9.928;2024-02-14T03:41:06;99912.88;;;7.24;100.00
25584;BME280;13463;51.526;9.928;2024-02-14T03:43:33;99904.84;;;7.27;100.00
25584;BME280;13463;51.526;9.928;2024-02-14T03:46:00;99912.75;;;7.27;100.00
25584;BME280;13463;51.526;9.928;2024-02-14T03:48:26;99918.72;;;7.30;100.00
25584;BME280;13463;51.526;9.928;2024-02-14T03:50:53;99914.06;;;7.37;100.00
25584;BME280;13463;51.526;9.928;2024-02-14T03:53:20;99903.53;;;7.37;100.00
25584;BME280;13463;51.526;9.928;2024-02-14T03:55:47;99918.59;;;7.33;100.00
25584;BME280;13463;51.526;9.928;2024-02-14T03:58:13;99917.75;;;7.33;100.00
25584;BME280;13463;51.526;9.928;2024-02-14T04:00:41;99917.75;;;7.33;100.00
25584;BME280;13463;51.526;9.928;2024-02-14T04:03:13;99910.66;;;7.35;100.00
25584;BME280;13463;51.526;9.928;2024-02-14T04:05:40;99897.50;;;7.33;100.00
25584;BME280;13463;51.526;9.928;2024-02-14T04:08:06;99901.78;;;7.36;100.00
25584;BME280;13463;51.526;9.928;2024-02-14T04:10:36;99899.91;;;7.39;100.00
25584;BME280;13463;51.526;9.928;2024-02-14T04:13:04;99892.84;;;7.40;100.00
25584;BME280;13463;51.526;9.928;2024-02-14T04:15:31;99895.47;;;7.40;100.00
25584;BME280;13463;51.526;9.928;2024-02-14T04:17:58;99901.53;;;7.42;100.00
25584;BME280;13463;51.526;9.928;2024-02-14T04:20:29;99919.84;;;7.45;100.00
25584;BME280;13463;51.526;9.928;2024-02-14T04:22:57;99904.84;;;7.47;100.00
25584;BME280;13463;51.526;9.928;2024-02-14T04:25:25;99903.13;;;7.46;100.00
25584;BME280;13463;51.526;9.928;2024-02-14T04:27:51;99901.53;;;7.42;100.00
25584;BME280;13463;51.526;9.928;2024-02-14T04:30:18;99902.06;;;7.30;100.00
25584;BME280;13463;51.526;9.928;2024-02-14T04:32:44;99901.34;;;7.26;100.00
25584;BME280;13463;51.526;9.928;2024-02-14T04:35:11;99902.31;;;7.24;100.00
25584;BME280;13463;51.526;9.928;2024-02-14T04:37:39;99906.94;;;7.19;100.00
25584;BME280;13463;51.526;9.928;2024-02-14T04:40:09;99905.28;;;7.16;100.00
25584;BME280;13463;51.526;9.928;2024-02-14T04:42:36;99891.25;;;7.16;100.00
25584;BME280;13463;51.526;9.928;2024-02-14T04:45:03;99883.47;;;7.13;100.00
25584;BME280;13463;51.526;9.928;2024-02-14T04:47:30;99883.47;;;7.13;100.00
25584;BME280;13463;51.526;9.928;2024-02-14T04:49:57;99890.59;;;7.11;100.00
25584;BME280;13463;51.526;9.928;2024-02-14T04:52:24;99896.78;;;7.10;100.00
25584;BME280;13463;51.526;9.928;2024-02-14T04:54:50;99891.38;;;7.13;100.00
25584;BME280;13463;51.526;9.928;2024-02-14T04:57:17;99894.16;;;7.10;100.00
25584;BME280;13463;51.526;9.928;2024-02-14T04:59:46;99902.84;;;7.12;100.00
25584;BME280;13463;51.526;9.928;2024-02-14T05:02:13;99897.03;;;7.24;100.00
25584;BME280;13463;51.526;9.928;2024-02-14T05:04:39;99896.19;;;7.23;100.00
25584;BME280;13463;51.526;9.928;2024-02-14T05:07:06;99894.28;;;7.27;100.00
25584;BME280;13463;51.526;9.928;2024-02-14T05:09:33;99888.84;;;7.50;100.00
25584;BME280;13463;51.526;9.928;2024-02-14T05:11:59;99880.16;;;7.48;100.00
25584;BME280;13463;51.526;9.928;2024-02-14T05:14:26;99877.59;;;7.47;100.00
25584;BME280;13463;51.526;9.928;2024-02-14T05:16:58;99887.31;;;7.65;100.00
25584;BME280;13463;51.526;9.928;2024-02-14T05:19:27;99887.63;;;7.77;100.00
25584;BME280;13463;51.526;9.928;2024-02-14T05:21:55;99895.22;;;8.03;100.00
25584;BME280;13463;51.526;9.928;2024-02-14T05:24:22;99893.78;;;7.96;100.00
25584;BME280;13463;51.526;9.928;2024-02-14T05:26:48;99900.63;;;8.00;100.00
25584;BME280;13463;51.526;9.928;2024-02-14T05:29:15;99895.09;;;8.06;100.00
25584;BME280;13463;51.526;9.928;2024-02-14T05:31:46;99902.53;;;8.36;100.00
25584;BME280;13463;51.526;9.928;2024-02-14T05:34:13;99889.56;;;8.31;100.00
25584;BME280;13463;51.526;9.928;2024-02-14T05:36:40;99891.88;;;8.37;100.00
25584;BME280;13463;51.526;9.928;2024-02-14T05:39:09;99884.50;;;8.25;100.00
25584;BME280;13463;51.526;9.928;2024-02-14T05:41:36;99883.66;;;8.25;100.00
25584;BME280;13463;51.526;9.928;2024-02-14T05:44:03;99882.94;;;8.21;100.00
25584;BME280;13463;51.526;9.928;2024-02-14T05:46:30;99875.63;;;8.28;100.00
25584;BME280;13463;51.526;9.928;2024-02-14T05:48:56;99889.81;;;8.44;100.00
25584;BME280;13463;51.526;9.928;2024-02-14T05:51:24;99887.97;;;8.46;100.00
25584;BME280;13463;51.526;9.928;2024-02-14T05:53:51;99895.41;;;8.38;100.00
25584;BME280;13463;51.526;9.928;2024-02-14T05:56:17;99902.75;;;8.31;100.00
25584;BME280;13463;51.526;9.928;2024-02-14T05:58:44;99895.06;;;8.27;100.00
25584;BME280;13463;51.526;9.928;2024-02-14T06:01:10;99900.50;;;8.22;100.00
25584;BME280;13463;51.526;9.928;2024-02-14T06:03:37;99892.41;;;8.27;100.00
25584;BME280;13463;51.526;9.928;2024-02-14T06:06:04;99883.31;;;8.32;100.00
25584;BME280;13463;51.526;9.928;2024-02-14T06:08:30;99892.63;;;8.41;100.00
25584;BME280;13463;51.526;9.928;2024-02-14T06:10:57;99881.00;;;8.25;100.00
25584;BME280;13463;51.526;9.928;2024-02-14T06:13:24;99880.34;;;8.20;100.00
25584;BME280;13463;51.526;9.928;2024-02-14T06:15:50;99883.53;;;8.28;100.00
25584;BME280;13463;51.526;9.928;2024-02-14T06:18:17;99889.22;;;8.19;100.00
25584;BME280;13463;51.526;9.928;2024-02-14T06:20:43;99892.53;;;8.24;100.00
25584;BME280;13463;51.526;9.928;2024-02-14T06:23:10;99899.34;;;8.29;100.00
25584;BME280;13463;51.526;9.928;2024-02-14T06:25:36;99899.25;;;8.31;100.00
25584;BME280;13463;51.526;9.928;2024-02-14T06:28:03;99900.66;;;8.19;100.00
25584;BME280;13463;51.526;9.928;2024-02-14T06:30:30;99895.38;;;8.19;100.00
25584;BME280;13463;51.526;9.928;2024-02-14T06:32:59;99900.44;;;8.24;100.00
25584;BME280;13463;51.526;9.928;2024-02-14T06:35:28;99903.22;;;8.21;100.00
25584;BME280;13463;51.526;9.928;2024-02-14T06:37:56;99893.75;;;8.17;100.00
25584;BME280;13463;51.526;9.928;2024-02-14T06:40:30;99906.78;;;8.20;100.00
25584;BME280;13463;51.526;9.928;2024-02-14T06:42:57;99912.72;;;8.25;100.00
25584;BME280;13463;51.526;9.928;2024-02-14T06:45:28;99907.97;;;8.33;100.00
25584;BME280;13463;51.526;9.928;2024-02-14T06:47:55;99907.97;;;8.33;100.00
25584;BME280;13463;51.526;9.928;2024-02-14T06:50:22;99914.41;;;8.46;100.00
25584;BME280;13463;51.526;9.928;2024-02-14T06:52:48;99918.50;;;8.51;100.00
25584;BME280;13463;51.526;9.928;2024-02-14T06:55:15;99916.66;;;8.53;100.00
25584;BME280;13463;51.526;9.928;2024-02-14T06:57:41;99923.69;;;8.36;100.00
25584;BME280;13463;51.526;9.928;2024-02-14T07:00:08;99927.63;;;8.46;100.00
25584;BME280;13463;51.526;9.928;2024-02-14T07:02:36;99932.25;;;8.41;100.00
25584;BME280;13463;51.526;9.928;2024-02-14T07:05:03;99942.81;;;8.41;100.00
25584;BME280;13463;51.526;9.928;2024-02-14T07:07:29;99935.81;;;8.40;100.00
25584;BME280;13463;51.526;9.928;2024-02-14T07:09:56;99943.81;;;8.38;100.00
25584;BME280;13463;51.526;9.928;2024-02-14T07:12:22;99942.53;;;8.47;100.00
25584;BME280;13463;51.526;9.928;2024-02-14T07:14:49;99943.59;;;8.43;100.00
25584;BME280;13463;51.526;9.928;2024-02-14T07:17:16;99953.19;;;8.45;100.00
25584;BME280;13463;51.526;9.928;2024-02-14T07:19:43;99948.75;;;8.46;100.00
25584;BME280;13463;51.526;9.928;2024-02-14T07:22:14;99952.09;;;8.49;100.00
25584;BME280;13463;51.526;9.928;2024-02-14T07:24:43;99948.06;;;8.78;100.00
25584;BME280;13463;51.526;9.928;2024-02-14T07:27:10;99952.06;;;8.68;100.00
25584;BME280;13463;51.526;9.928;2024-02-14T07:29:37;99949.44;;;8.68;100.00
25584;BME280;13463;51.526;9.928;2024-02-14T07:32:04;99953.84;;;8.86;100.00
25584;BME280;13463;51.526;9.928;2024-02-14T07:34:31;99964.78;;;8.79;100.00
25584;BME280;13463;51.526;9.928;2024-02-14T07:36:58;99942.91;;;8.75;100.00
25584;BME280;13463;51.526;9.928;2024-02-14T07:39:24;99945.22;;;8.64;100.00
25584;BME280;13463;51.526;9.928;2024-02-14T07:41:51;99953.78;;;8.69;100.00
25584;BME280;13463;51.526;9.928;2024-02-14T07:44:18;99950.06;;;8.73;100.00
25584;BME280;13463;51.526;9.928;2024-02-14T07:46:44;99946.66;;;8.71;100.00
25584;BME280;13463;51.526;9.928;2024-02-14T07:49:11;99954.00;;;8.83;100.00
25584;BME280;13463;51.526;9.928;2024-02-14T07:51:38;99960.28;;;8.81;100.00
25584;BME280;13463;51.526;9.928;2024-02-14T07:54:05;99950.16;;;9.07;100.00
25584;BME280;13463;51.526;9.928;2024-02-14T07:56:32;99950.63;;;9.15;100.00
25584;BME280;13463;51.526;9.928;2024-02-14T07:58:59;99940.88;;;9.33;100.00
25584;BME280;13463;51.526;9.928;2024-02-14T08:01:26;99952.16;;;9.02;100.00
25584;BME280;13463;51.526;9.928;2024-02-14T08:03:53;99954.44;;;9.10;100.00
25584;BME280;13463;51.526;9.928;2024-02-14T08:06:21;99958.22;;;9.04;100.00
25584;BME280;13463;51.526;9.928;2024-02-14T08:08:47;99954.94;;;9.35;100.00
25584;BME280;13463;51.526;9.928;2024-02-14T08:11:18;99949.53;;;9.19;100.00
25584;BME280;13463;51.526;9.928;2024-02-14T08:13:44;99956.38;;;9.23;100.00
25584;BME280;13463;51.526;9.928;2024-02-14T08:16:11;99949.25;;;9.25;100.00
25584;BME280;13463;51.526;9.928;2024-02-14T08:18:38;99948.44;;;9.06;100.00
25584;BME280;13463;51.526;9.928;2024-02-14T08:21:06;99955.63;;;9.38;100.00
25584;BME280;13463;51.526;9.928;2024-02-14T08:23:33;99958.25;;;9.21;100.00
25584;BME280;13463;51.526;9.928;2024-02-14T08:26:01;99957.47;;;9.19;100.00
25584;BME280;13463;51.526;9.928;2024-02-14T08:28:28;99959.50;;;9.31;100.00
25584;BME280;13463;51.526;9.928;2024-02-14T08:30:54;99950.66;;;9.32;100.00
25584;BME280;13463;51.526;9.928;2024-02-14T08:33:21;99958.88;;;9.61;100.00
25584;BME280;13463;51.526;9.928;2024-02-14T08:35:48;99951.72;;;9.63;100.00
25584;BME280;13463;51.526;9.928;2024-02-14T08:38:15;99963.16;;;9.80;100.00
25584;BME280;13463;51.526;9.928;2024-02-14T08:40:41;99961.13;;;9.85;100.00
25584;BME280;13463;51.526;9.928;2024-02-14T08:43:08;99958.22;;;9.90;100.00
25584;BME280;13463;51.526;9.928;2024-02-14T08:45:35;99956.69;;;9.86;100.00
25584;BME280;13463;51.526;9.928;2024-02-14T08:48:04;99955.75;;;9.70;100.00
25584;BME280;13463;51.526;9.928;2024-02-14T08:50:31;99964.31;;;9.75;100.00
25584;BME280;13463;51.526;9.928;2024-02-14T08:52:58;99953.09;;;9.87;100.00
25584;BME280;13463;51.526;9.928;2024-02-14T08:55:24;99954.63;;;9.91;100.00
25584;BME280;13463;51.526;9.928;2024-02-14T08:57:51;99960.75;;;9.76;100.00
25584;BME280;13463;51.526;9.928;2024-02-14T09:00:17;99954.72;;;9.89;100.00
25584;BME280;13463;51.526;9.928;2024-02-14T09:02:48;99959.66;;;9.63;100.00
25584;BME280;13463;51.526;9.928;2024-02-14T09:05:15;99962.28;;;9.80;100.00
25584;BME280;13463;51.526;9.928;2024-02-14T09:07:43;99964.16;;;9.78;100.00
25584;BME280;13463;51.526;9.928;2024-02-14T09:10:10;99968.50;;;9.79;100.00
25584;BME280;13463;51.526;9.928;2024-02-14T09:12:39;99976.75;;;10.24;100.00
25584;BME280;13463;51.526;9.928;2024-02-14T09:15:07;99967.22;;;10.03;100.00
25584;BME280;13463;51.526;9.928;2024-02-14T09:17:35;99978.00;;;10.17;100.00
25584;BME280;13463;51.526;9.928;2024-02-14T09:20:01;99974.88;;;10.09;100.00
25584;BME280;13463;51.526;9.928;2024-02-14T09:22:28;99974.75;;;10.12;100.00
25584;BME280;13463;51.526;9.928;2024-02-14T09:24:56;99977.66;;;10.23;100.00
25584;BME280;13463;51.526;9.928;2024-02-14T09:27:23;99975.25;;;10.19;100.00
25584;BME280;13463;51.526;9.928;2024-02-14T09:29:50;99974.91;;;10.25;100.00
25584;BME280;13463;51.526;9.928;2024-02-14T09:32:17;99978.28;;;10.11;100.00
25584;BME280;13463;51.526;9.928;2024-02-14T09:34:43;99979.69;;;10.01;100.00
25584;BME280;13463;51.526;9.928;2024-02-14T09:37:12;99979.28;;;9.93;100.00
25584;BME280;13463;51.526;9.928;2024-02-14T09:39:39;99980.16;;;10.09;100.00
25584;BME280;13463;51.526;9.928;2024-02-14T09:42:09;99986.34;;;10.10;100.00
25584;BME280;13463;51.526;9.928;2024-02-14T09:44:36;99988.13;;;10.26;100.00
25584;BME280;13463;51.526;9.928;2024-02-14T09:47:05;99985.56;;;10.40;100.00
25584;BME280;13463;51.526;9.928;2024-02-14T09:49:32;99972.72;;;10.17;100.00
25584;BME280;13463;51.526;9.928;2024-02-14T09:52:02;99978.63;;;10.05;100.00
25584;BME280;13463;51.526;9.928;2024-02-14T09:54:31;99978.94;;;10.16;100.00
25584;BME280;13463;51.526;9.928;2024-02-14T09:56:58;99975.94;;;10.22;100.00
25584;BME280;13463;51.526;9.928;2024-02-14T09:59:24;99976.28;;;10.16;100.00
25584;BME280;13463;51.526;9.928;2024-02-14T10:01:51;99976.75;;;10.07;100.00
25584;BME280;13463;51.526;9.928;2024-02-14T10:10:58;99982.53;;;10.79;100.00
25584;BME280;13463;51.526;9.928;2024-02-14T10:13:30;99990.66;;;10.60;100.00
25584;BME280;13463;51.526;9.928;2024-02-14T10:15:58;99987.09;;;11.07;100.00
25584;BME280;13463;51.526;9.928;2024-02-14T10:18:24;99983.38;;;10.80;100.00
25584;BME280;13463;51.526;9.928;2024-02-14T10:20:54;99988.00;;;10.76;100.00
25584;BME280;13463;51.526;9.928;2024-02-14T10:23:21;99993.91;;;10.97;100.00
25584;BME280;13463;51.526;9.928;2024-02-14T10:25:56;99987.75;;;11.42;100.00
25584;BME280;13463;51.526;9.928;2024-02-14T10:28:23;99987.47;;;11.01;100.00
25584;BME280;13463;51.526;9.928;2024-02-14T10:31:01;99990.06;;;10.87;100.00
25584;BME280;13463;51.526;9.928;2024-02-14T10:33:28;100005.88;;;10.88;100.00
25584;BME280;13463;51.526;9.928;2024-02-14T10:35:58;100000.66;;;10.87;100.00
25584;BME280;13463;51.526;9.928;2024-02-14T10:38:32;100005.00;;;10.88;100.00
25584;BME280;13463;51.526;9.928;2024-02-14T10:41:03;100008.00;;;10.97;100.00
25584;BME280;13463;51.526;9.928;2024-02-14T10:43:32;100013.75;;;10.74;100.00
25584;BME280;13463;51.526;9.928;2024-02-14T10:46:00;100015.47;;;10.75;100.00
25584;BME280;13463;51.526;9.928;2024-02-14T10:48:34;100013.94;;;10.87;100.00
25584;BME280;13463;51.526;9.928;2024-02-14T10:51:05;100016.59;;;10.87;100.00
25584;BME280;13463;51.526;9.928;2024-02-14T10:53:33;100027.16;;;10.55;100.00
25584;BME280;13463;51.526;9.928;2024-02-14T10:56:03;100023.56;;;10.56;100.00
25584;BME280;13463;51.526;9.928;2024-02-14T10:58:32;100026.44;;;10.36;100.00
25584;BME280;13463;51.526;9.928;2024-02-14T11:01:00;100027.31;;;10.52;100.00
25584;BME280;13463;51.526;9.928;2024-02-14T11:03:27;100016.63;;;10.38;100.00
25584;BME280;13463;51.526;9.928;2024-02-14T11:06:01;100013.66;;;10.60;100.00
25584;BME280;13463;51.526;9.928;2024-02-14T11:08:30;100017.41;;;10.56;100.00
25584;BME280;13463;51.526;9.928;2024-02-14T11:10:59;100029.38;;;10.47;100.00
25584;BME280;13463;51.526;9.928;2024-02-14T11:13:28;100016.72;;;10.68;100.00
25584;BME280;13463;51.526;9.928;2024-02-14T11:15:56;100013.94;;;10.87;100.00
25584;BME280;13463;51.526;9.928;2024-02-14T11:18:27;100011.59;;;10.81;100.00
25584;BME280;13463;51.526;9.928;2024-02-14T11:20:57;100009.72;;;10.83;100.00
25584;BME280;13463;51.526;9.928;2024-02-14T11:23:30;100015.47;;;10.75;100.00
25584;BME280;13463;51.526;9.928;2024-02-14T11:26:01;100017.94;;;10.94;100.00
25584;BME280;13463;51.526;9.928;2024-02-14T11:28:36;100020.69;;;11.08;100.00
25584;BME280;13463;51.526;9.928;2024-02-14T11:31:03;100022.47;;;10.76;100.00
25584;BME280;13463;51.526;9.928;2024-02-14T11:33:32;100021.09;;;10.69;100.00
25584;BME280;13463;51.526;9.928;2024-02-14T11:36:07;100031.81;;;10.99;100.00
25584;BME280;13463;51.526;9.928;2024-02-14T11:38:34;100020.59;;;10.78;100.00
25584;BME280;13463;51.526;9.928;2024-02-14T11:41:02;100017.78;;;10.97;100.00
25584;BME280;13463;51.526;9.928;2024-02-14T11:43:30;100022.91;;;11.00;100.00
25584;BME280;13463;51.526;9.928;2024-02-14T11:45:58;100024.97;;;10.95;100.00
25584;BME280;13463;51.526;9.928;2024-02-14T11:48:24;100015.69;;;11.02;100.00
25584;BME280;13463;51.526;9.928;2024-02-14T11:50:53;100023.56;;;11.19;100.00
25584;BME280;13463;51.526;9.928;2024-02-14T11:53:20;100016.41;;;11.21;100.00
25584;BME280;13463;51.526;9.928;2024-02-14T11:55:47;100012.19;;;11.62;100.00
25584;BME280;13463;51.526;9.928;2024-02-14T11:58:15;100015.13;;;11.73;100.00
25584;BME280;13463;51.526;9.928;2024-02-14T12:00:44;100010.84;;;11.55;100.00
25584;BME280;13463;51.526;9.928;2024-02-14T12:03:17;100009.53;;;11.62;100.00
25584;BME280;13463;51.526;9.928;2024-02-14T12:05:46;100008.66;;;11.77;100.00
25584;BME280;13463;51.526;9.928;2024-02-14T12:08:14;100008.31;;;11.83;100.00
25584;BME280;13463;51.526;9.928;2024-02-14T12:10:45;100020.44;;;11.73;100.00
25584;BME280;13463;51.526;9.928;2024-02-14T12:13:21;100017.91;;;11.86;100.00
25584;BME280;13463;51.526;9.928;2024-02-14T12:15:49;100026.41;;;11.77;100.00
25584;BME280;13463;51.526;9.928;2024-02-14T12:18:19;100022.53;;;11.82;100.00
25584;BME280;13463;51.526;9.928;2024-02-14T12:20:46;100023.88;;;11.89;100.00
25584;BME280;13463;51.526;9.928;2024-02-14T12:23:19;100023.34;;;11.53;100.00
25584;BME280;13463;51.526;9.928;2024-02-14T12:25:46;100018.53;;;11.60;100.00
25584;BME280;13463;51.526;9.928;2024-02-14T12:28:15;100013.16;;;11.61;100.00
25584;BME280;13463;51.526;9.928;2024-02-14T12:30:44;100016.47;;;11.65;100.00
25584;BME280;13463;51.526;9.928;2024-02-14T12:33:13;100018.22;;;11.50;100.00
25584;BME280;13463;51.526;9.928;2024-02-14T12:35:50;100021.28;;;11.58;100.00
25584;BME280;13463;51.526;9.928;2024-02-14T12:38:19;100024.00;;;11.72;100.00
25584;BME280;13463;51.526;9.928;2024-02-14T12:40:46;100015.22;;;11.56;100.00
25584;BME280;13463;51.526;9.928;2024-02-14T12:43:14;100017.38;;;11.50;100.00
25584;BME280;13463;51.526;9.928;2024-02-14T12:45:41;100019.75;;;11.54;100.00
25584;BME280;13463;51.526;9.928;2024-02-14T12:48:10;100026.81;;;11.39;100.00
25584;BME280;13463;51.526;9.928;2024-02-14T12:50:37;100035.56;;;11.26;100.00
25584;BME280;13463;51.526;9.928;2024-02-14T12:53:05;100033.13;;;11.53;100.00
25584;BME280;13463;51.526;9.928;2024-02-14T12:55:31;100032.28;;;11.52;100.00
25584;BME280;13463;51.526;9.928;2024-02-14T12:57:58;100038.03;;;11.29;100.00
25584;BME280;13463;51.526;9.928;2024-02-14T13:00:25;100044.47;;;11.25;100.00